sensor_id;sensor_type;location;lat;lon;timestamp;pressure;altitude;pressure_sealevel;temperature;humidity
68948;BME280;55996;49.546;7.400;2023-07-22T00:02:14;98576.44;;;16.44;98.18
68948;BME280;55996;49.546;7.400;2023-07-22T00:04:40;98580.31;;;16.53;97.38
68948;BME280;55996;49.546;7.400;2023-07-22T00:07:05;98576.06;;;16.51;96.67
68948;BME280;55996;49.546;7.400;2023-07-22T00:09:33;98575.16;;;16.52;96.80
68948;BME280;55996;49.546;7.400;2023-07-22T00:11:59;98572.28;;;16.40;96.64
68948;BME280;55996;49.546;7.400;2023-07-22T00:14:25;98562.38;;;16.29;97.80
68948;BME280;55996;49.546;7.400;2023-07-22T00:16:51;98572.06;;;16.29;97.49
68948;BME280;55996;49.546;7.400;2023-07-22T00:19:16;98575.88;;;16.39;97.17
68948;BME280;55996;49.546;7.400;2023-07-22T00:21:41;98573.09;;;16.71;94.21
68948;BME280;55996;49.546;7.400;2023-07-22T00:24:07;98572.25;;;16.56;94.70
68948;BME280;55996;49.546;7.400;2023-07-22T00:26:32;98570.59;;;16.39;96.31
68948;BME280;55996;49.546;7.400;2023-07-22T00:28:58;98574.81;;;16.27;99.21
68948;BME280;55996;49.546;7.400;2023-07-22T00:31:24;98572.78;;;16.47;96.52
68948;BME280;55996;49.546;7.400;2023-07-22T00:33:49;98571.31;;;16.27;98.20
68948;BME280;55996;49.546;7.400;2023-07-22T00:36:14;98572.91;;;16.29;98.16
68948;BME280;55996;49.546;7.400;2023-07-22T00:38:40;98563.25;;;16.44;96.52
68948;BME280;55996;49.546;7.400;2023-07-22T00:41:06;98556.81;;;16.34;97.69
68948;BME280;55996;49.546;7.400;2023-07-22T00:43:32;98560.66;;;16.28;95.98
68948;BME280;55996;49.546;7.400;2023-07-22T00:45:58;98569.53;;;16.27;97.85
68948;BME280;55996;49.546;7.400;2023-07-22T00:48:24;98565.88;;;16.30;98.02
68948;BME280;55996;49.546;7.400;2023-07-22T00:50:49;98569.59;;;16.26;98.96
68948;BME280;55996;49.546;7.400;2023-07-22T00:53:15;98566.03;;;16.27;100.00
68948;BME280;55996;49.546;7.400;2023-07-22T00:55:41;98556.19;;;16.14;99.62
68948;BME280;55996;49.546;7.400;2023-07-22T00:58:06;98562.38;;;16.29;98.35
68948;BME280;55996;49.546;7.400;2023-07-22T01:00:32;98574.16;;;16.38;97.31
68948;BME280;55996;49.546;7.400;2023-07-22T01:02:58;98574.03;;;16.25;97.19
68948;BME280;55996;49.546;7.400;2023-07-22T01:05:25;98560.75;;;16.27;97.76
68948;BME280;55996;49.546;7.400;2023-07-22T01:07:52;98555.03;;;16.04;98.87
68948;BME280;55996;49.546;7.400;2023-07-22T01:10:18;98568.28;;;16.19;98.33
68948;BME280;55996;49.546;7.400;2023-07-22T01:12:44;98555.72;;;16.08;99.82
68948;BME280;55996;49.546;7.400;2023-07-22T01:15:10;98560.66;;;15.98;99.39
68948;BME280;55996;49.546;7.400;2023-07-22T01:17:39;98562.31;;;15.85;99.32
68948;BME280;55996;49.546;7.400;2023-07-22T01:20:06;98561.38;;;15.86;100.00
68948;BME280;55996;49.546;7.400;2023-07-22T01:22:35;98556.56;;;15.76;100.00
68948;BME280;55996;49.546;7.400;2023-07-22T01:25:01;98549.19;;;15.67;100.00
68948;BME280;55996;49.546;7.400;2023-07-22T01:27:27;98553.69;;;15.81;100.00
68948;BME280;55996;49.546;7.400;2023-07-22T01:29:52;98560.91;;;15.77;100.00
68948;BME280;55996;49.546;7.400;2023-07-22T01:32:18;98544.50;;;15.72;100.00
68948;BME280;55996;49.546;7.400;2023-07-22T01:34:43;98550.38;;;15.93;100.00
68948;BME280;55996;49.546;7.400;2023-07-22T01:37:09;98551.28;;;16.08;100.00
68948;BME280;55996;49.546;7.400;2023-07-22T01:39:35;98544.75;;;16.00;100.00
68948;BME280;55996;49.546;7.400;2023-07-22T01:42:01;98547.06;;;15.90;100.00
68948;BME280;55996;49.546;7.400;2023-07-22T01:44:27;98556.09;;;15.86;100.00
68948;BME280;55996;49.546;7.400;2023-07-22T01:46:52;98548.28;;;15.84;100.00
68948;BME280;55996;49.546;7.400;2023-07-22T01:49:17;98551.28;;;15.76;100.00
68948;BME280;55996;49.546;7.400;2023-07-22T01:51:43;98545.44;;;15.71;100.00
68948;BME280;55996;49.546;7.400;2023-07-22T01:54:09;98540.16;;;15.71;100.00
68948;BME280;55996;49.546;7.400;2023-07-22T01:56:38;98549.63;;;15.75;100.00
68948;BME280;55996;49.546;7.400;2023-07-22T01:59:04;98544.94;;;15.80;100.00
68948;BME280;55996;49.546;7.400;2023-07-22T02:01:30;98555.06;;;15.88;100.00
68948;BME280;55996;49.546;7.400;2023-07-22T02:03:55;98542.47;;;15.77;100.00
68948;BME280;55996;49.546;7.400;2023-07-22T02:06:21;98542.97;;;16.00;100.00
68948;BME280;55996;49.546;7.400;2023-07-22T02:08:46;98543.84;;;15.85;100.00
68948;BME280;55996;49.546;7.400;2023-07-22T02:11:12;98547.06;;;15.90;100.00
68948;BME280;55996;49.546;7.400;2023-07-22T02:13:38;98542.28;;;15.80;100.00
68948;BME280;55996;49.546;7.400;2023-07-22T02:16:04;98552.91;;;15.95;100.00
68948;BME280;55996;49.546;7.400;2023-07-22T02:18:29;98555.16;;;15.87;100.00
68948;BME280;55996;49.546;7.400;2023-07-22T02:20:56;98550.72;;;15.87;100.00
68948;BME280;55996;49.546;7.400;2023-07-22T02:23:22;98544.78;;;15.84;100.00
68948;BME280;55996;49.546;7.400;2023-07-22T02:25:52;98554.22;;;15.88;100.00
68948;BME280;55996;49.546;7.400;2023-07-22T02:28:18;98543.84;;;15.85;100.00
68948;BME280;55996;49.546;7.400;2023-07-22T02:30:50;98547.72;;;15.77;100.00
68948;BME280;55996;49.546;7.400;2023-07-22T02:33:18;98549.97;;;15.69;100.00
68948;BME280;55996;49.546;7.400;2023-07-22T02:35:43;98555.41;;;15.66;100.00
68948;BME280;55996;49.546;7.400;2023-07-22T02:38:09;98547.25;;;15.71;100.00
68948;BME280;55996;49.546;7.400;2023-07-22T02:40:35;98551.50;;;15.89;100.00
68948;BME280;55996;49.546;7.400;2023-07-22T02:43:01;98557.94;;;16.00;100.00
68948;BME280;55996;49.546;7.400;2023-07-22T02:45:26;98561.84;;;15.92;100.00
68948;BME280;55996;49.546;7.400;2023-07-22T02:47:52;98557.91;;;15.85;100.00
68948;BME280;55996;49.546;7.400;2023-07-22T02:50:18;98560.25;;;15.90;100.00
68948;BME280;55996;49.546;7.400;2023-07-22T02:52:43;98554.47;;;15.83;100.00
68948;BME280;55996;49.546;7.400;2023-07-22T02:57:36;98549.59;;;15.91;100.00
68948;BME280;55996;49.546;7.400;2023-07-22T03:00:02;98536.72;;;15.87;100.00
68948;BME280;55996;49.546;7.400;2023-07-22T03:02:32;98538.22;;;15.75;100.00
68948;BME280;55996;49.546;7.400;2023-07-22T03:04:57;98537.63;;;15.86;100.00
68948;BME280;55996;49.546;7.400;2023-07-22T03:07:23;98538.13;;;15.76;100.00
68948;BME280;55996;49.546;7.400;2023-07-22T03:09:51;98540.78;;;15.60;100.00
68948;BME280;55996;49.546;7.400;2023-07-22T03:12:16;98549.97;;;15.53;100.00
68948;BME280;55996;49.546;7.400;2023-07-22T03:14:42;98550.31;;;15.47;100.00
68948;BME280;55996;49.546;7.400;2023-07-22T03:17:07;98547.06;;;15.58;100.00
68948;BME280;55996;49.546;7.400;2023-07-22T03:19:33;98542.22;;;15.50;100.00
68948;BME280;55996;49.546;7.400;2023-07-22T03:21:58;98545.88;;;15.47;100.00
68948;BME280;55996;49.546;7.400;2023-07-22T03:24:24;98547.44;;;15.36;100.00
68948;BME280;55996;49.546;7.400;2023-07-22T03:26:50;98527.34;;;15.33;100.00
68948;BME280;55996;49.546;7.400;2023-07-22T03:29:15;98540.69;;;15.30;100.00
68948;BME280;55996;49.546;7.400;2023-07-22T03:31:41;98548.00;;;15.25;100.00
68948;BME280;55996;49.546;7.400;2023-07-22T03:34:06;98553.84;;;15.14;100.00
68948;BME280;55996;49.546;7.400;2023-07-22T03:36:32;98548.75;;;15.27;100.00
68948;BME280;55996;49.546;7.400;2023-07-22T03:39:01;98547.75;;;15.29;100.00
68948;BME280;55996;49.546;7.400;2023-07-22T03:41:28;98533.81;;;15.27;100.00
68948;BME280;55996;49.546;7.400;2023-07-22T03:43:53;98538.84;;;15.32;100.00
68948;BME280;55996;49.546;7.400;2023-07-22T03:46:18;98539.25;;;15.24;100.00
68948;BME280;55996;49.546;7.400;2023-07-22T03:48:44;98551.81;;;15.19;100.00
68948;BME280;55996;49.546;7.400;2023-07-22T03:51:09;98553.16;;;15.10;100.00
68948;BME280;55996;49.546;7.400;2023-07-22T03:53:35;98562.00;;;15.09;100.00
68948;BME280;55996;49.546;7.400;2023-07-22T03:56:00;98560.13;;;15.11;100.00
68948;BME280;55996;49.546;7.400;2023-07-22T03:58:26;98557.91;;;15.04;100.00
68948;BME280;55996;49.546;7.400;2023-07-22T04:00:51;98545.16;;;15.12;100.00
68948;BME280;55996;49.546;7.400;2023-07-22T04:03:17;98549.38;;;15.16;100.00
68948;BME280;55996;49.546;7.400;2023-07-22T04:05:42;98561.75;;;15.14;100.00
68948;BME280;55996;49.546;7.400;2023-07-22T04:08:08;98572.47;;;15.27;100.00
68948;BME280;55996;49.546;7.400;2023-07-22T04:10:33;98562.88;;;15.26;100.00
68948;BME280;55996;49.546;7.400;2023-07-22T04:12:58;98570.50;;;15.30;100.00
68948;BME280;55996;49.546;7.400;2023-07-22T04:15:24;98570.16;;;15.21;100.00
68948;BME280;55996;49.546;7.400;2023-07-22T04:17:50;98559.81;;;15.33;100.00
68948;BME280;55996;49.546;7.400;2023-07-22T04:20:15;98563.47;;;15.15;100.00
68948;BME280;55996;49.546;7.400;2023-07-22T04:22:41;98565.75;;;15.21;100.00
68948;BME280;55996;49.546;7.400;2023-07-22T04:25:07;98559.97;;;15.14;100.00
68948;BME280;55996;49.546;7.400;2023-07-22T04:27:32;98577.03;;;15.07;100.00
68948;BME280;55996;49.546;7.400;2023-07-22T04:29:58;98568.56;;;15.34;100.00
68948;BME280;55996;49.546;7.400;2023-07-22T04:32:23;98578.03;;;15.38;100.00
68948;BME280;55996;49.546;7.400;2023-07-22T04:34:48;98575.53;;;15.35;100.00
68948;BME280;55996;49.546;7.400;2023-07-22T04:37:14;98569.44;;;15.35;100.00
68948;BME280;55996;49.546;7.400;2023-07-22T04:39:42;98560.75;;;15.32;100.00
68948;BME280;55996;49.546;7.400;2023-07-22T04:42:07;98572.41;;;15.28;100.00
68948;BME280;55996;49.546;7.400;2023-07-22T04:44:33;98569.75;;;15.28;100.00
68948;BME280;55996;49.546;7.400;2023-07-22T04:46:58;98567.63;;;15.35;100.00
68948;BME280;55996;49.546;7.400;2023-07-22T04:49:24;98560.75;;;15.32;100.00
68948;BME280;55996;49.546;7.400;2023-07-22T04:51:49;98567.97;;;15.45;100.00
68948;BME280;55996;49.546;7.400;2023-07-22T04:54:15;98562.47;;;15.49;100.00
68948;BME280;55996;49.546;7.400;2023-07-22T04:56:41;98570.19;;;15.53;100.00
68948;BME280;55996;49.546;7.400;2023-07-22T04:59:07;98565.59;;;15.56;100.00
68948;BME280;55996;49.546;7.400;2023-07-22T05:01:33;98549.44;;;15.46;100.00
68948;BME280;55996;49.546;7.400;2023-07-22T05:03:58;98560.91;;;15.61;100.00
68948;BME280;55996;49.546;7.400;2023-07-22T05:06:23;98568.75;;;15.63;100.00
68948;BME280;55996;49.546;7.400;2023-07-22T05:08:50;98555.59;;;15.63;100.00
68948;BME280;55996;49.546;7.400;2023-07-22T05:11:15;98564.50;;;15.60;100.00
68948;BME280;55996;49.546;7.400;2023-07-22T05:13:41;98568.50;;;15.84;100.00
68948;BME280;55996;49.546;7.400;2023-07-22T05:16:07;98572.06;;;15.98;100.00
68948;BME280;55996;49.546;7.400;2023-07-22T05:18:32;98562.63;;;15.94;100.00
68948;BME280;55996;49.546;7.400;2023-07-22T05:20:58;98577.31;;;15.98;100.00
68948;BME280;55996;49.546;7.400;2023-07-22T05:23:23;98564.44;;;15.94;100.00
68948;BME280;55996;49.546;7.400;2023-07-22T05:25:52;98560.75;;;15.96;100.00
68948;BME280;55996;49.546;7.400;2023-07-22T05:28:18;98563.31;;;15.98;100.00
68948;BME280;55996;49.546;7.400;2023-07-22T05:30:44;98570.19;;;16.01;100.00
68948;BME280;55996;49.546;7.400;2023-07-22T05:33:09;98563.88;;;16.03;100.00
68948;BME280;55996;49.546;7.400;2023-07-22T05:35:35;98566.75;;;16.14;100.00
68948;BME280;55996;49.546;7.400;2023-07-22T05:38:00;98568.19;;;16.20;100.00
68948;BME280;55996;49.546;7.400;2023-07-22T05:40:29;98575.06;;;16.23;100.00
68948;BME280;55996;49.546;7.400;2023-07-22T05:42:54;98575.84;;;16.25;100.00
68948;BME280;55996;49.546;7.400;2023-07-22T05:45:23;98574.16;;;16.38;100.00
68948;BME280;55996;49.546;7.400;2023-07-22T05:47:48;98576.28;;;16.48;100.00
68948;BME280;55996;49.546;7.400;2023-07-22T05:50:14;98571.09;;;16.46;100.00
68948;BME280;55996;49.546;7.400;2023-07-22T05:52:39;98573.44;;;16.51;100.00
68948;BME280;55996;49.546;7.400;2023-07-22T05:55:05;98563.25;;;16.44;100.00
68948;BME280;55996;49.546;7.400;2023-07-22T05:57:30;98572.78;;;16.47;100.00
68948;BME280;55996;49.546;7.400;2023-07-22T05:59:56;98577.53;;;16.56;100.00
68948;BME280;55996;49.546;7.400;2023-07-22T06:02:21;98573.88;;;16.73;100.00
68948;BME280;55996;49.546;7.400;2023-07-22T06:04:47;98575.53;;;16.74;100.00
68948;BME280;55996;49.546;7.400;2023-07-22T06:07:13;98578.94;;;16.76;100.00
68948;BME280;55996;49.546;7.400;2023-07-22T06:09:38;98577.09;;;16.78;100.00
68948;BME280;55996;49.546;7.400;2023-07-22T06:12:04;98582.72;;;16.87;100.00
68948;BME280;55996;49.546;7.400;2023-07-22T06:14:29;98571.22;;;16.88;100.00
68948;BME280;55996;49.546;7.400;2023-07-22T06:16:55;98585.91;;;16.93;100.00
68948;BME280;55996;49.546;7.400;2023-07-22T06:19:20;98592.19;;;16.91;100.00
68948;BME280;55996;49.546;7.400;2023-07-22T06:21:46;98593.81;;;16.93;100.00
68948;BME280;55996;49.546;7.400;2023-07-22T06:24:11;98584.66;;;16.99;100.00
68948;BME280;55996;49.546;7.400;2023-07-22T06:26:36;98585.19;;;16.90;100.00
68948;BME280;55996;49.546;7.400;2023-07-22T06:29:02;98597.78;;;17.15;100.00
68948;BME280;55996;49.546;7.400;2023-07-22T06:31:27;98590.34;;;17.22;100.00
68948;BME280;55996;49.546;7.400;2023-07-22T06:33:57;98599.09;;;17.37;100.00
68948;BME280;55996;49.546;7.400;2023-07-22T06:36:22;98597.84;;;17.42;100.00
68948;BME280;55996;49.546;7.400;2023-07-22T06:38:48;98587.09;;;17.46;100.00
68948;BME280;55996;49.546;7.400;2023-07-22T06:41:14;98591.13;;;17.51;98.68
68948;BME280;55996;49.546;7.400;2023-07-22T06:43:39;98601.00;;;17.77;97.34
68948;BME280;55996;49.546;7.400;2023-07-22T06:46:05;98593.41;;;17.85;93.63
68948;BME280;55996;49.546;7.400;2023-07-22T06:48:30;98604.19;;;17.96;93.87
68948;BME280;55996;49.546;7.400;2023-07-22T06:50:56;98592.25;;;18.03;87.90
68948;BME280;55996;49.546;7.400;2023-07-22T06:53:21;98596.06;;;17.99;87.68
68948;BME280;55996;49.546;7.400;2023-07-22T06:55:51;98595.06;;;18.15;85.47
68948;BME280;55996;49.546;7.400;2023-07-22T06:58:17;98594.34;;;18.26;82.35
68948;BME280;55996;49.546;7.400;2023-07-22T07:00:42;98588.34;;;18.36;83.12
68948;BME280;55996;49.546;7.400;2023-07-22T07:03:08;98592.56;;;18.39;81.61
68948;BME280;55996;49.546;7.400;2023-07-22T07:05:33;98596.63;;;18.45;82.64
68948;BME280;55996;49.546;7.400;2023-07-22T07:08:00;98596.03;;;18.67;78.12
68948;BME280;55996;49.546;7.400;2023-07-22T07:10:25;98595.69;;;18.71;76.61
68948;BME280;55996;49.546;7.400;2023-07-22T07:12:51;98596.53;;;18.72;77.87
68948;BME280;55996;49.546;7.400;2023-07-22T07:15:16;98597.06;;;18.77;81.24
68948;BME280;55996;49.546;7.400;2023-07-22T07:17:42;98594.78;;;18.98;77.06
68948;BME280;55996;49.546;7.400;2023-07-22T07:20:08;98585.88;;;19.25;76.00
68948;BME280;55996;49.546;7.400;2023-07-22T07:22:33;98585.59;;;19.54;68.82
68948;BME280;55996;49.546;7.400;2023-07-22T07:24:58;98585.19;;;19.47;70.53
68948;BME280;55996;49.546;7.400;2023-07-22T07:27:24;98586.22;;;19.58;71.00
68948;BME280;55996;49.546;7.400;2023-07-22T07:29:50;98584.47;;;19.70;67.83
68948;BME280;55996;49.546;7.400;2023-07-22T07:32:15;98586.78;;;19.74;65.74
68948;BME280;55996;49.546;7.400;2023-07-22T07:34:40;98579.09;;;19.95;64.49
68948;BME280;55996;49.546;7.400;2023-07-22T07:37:06;98581.41;;;20.00;66.17
68948;BME280;55996;49.546;7.400;2023-07-22T07:39:31;98576.56;;;19.94;68.27
68948;BME280;55996;49.546;7.400;2023-07-22T07:41:57;98577.66;;;19.91;68.62
68948;BME280;55996;49.546;7.400;2023-07-22T07:44:22;98574.69;;;20.07;71.31
68948;BME280;55996;49.546;7.400;2023-07-22T07:46:47;98579.59;;;20.25;64.76
68948;BME280;55996;49.546;7.400;2023-07-22T07:49:13;98579.50;;;20.38;63.85
68948;BME280;55996;49.546;7.400;2023-07-22T07:51:40;98586.22;;;20.55;66.47
68948;BME280;55996;49.546;7.400;2023-07-22T07:54:07;98579.22;;;20.65;65.52
68948;BME280;55996;49.546;7.400;2023-07-22T07:56:33;98573.59;;;20.81;64.41
68948;BME280;55996;49.546;7.400;2023-07-22T07:58:58;98572.78;;;21.15;60.91
68948;BME280;55996;49.546;7.400;2023-07-22T08:01:24;98580.38;;;21.42;62.14
68948;BME280;55996;49.546;7.400;2023-07-22T08:03:49;98575.31;;;21.50;59.43
68948;BME280;55996;49.546;7.400;2023-07-22T08:06:15;98576.66;;;21.67;60.59
68948;BME280;55996;49.546;7.400;2023-07-22T08:08:40;98576.00;;;21.86;54.78
68948;BME280;55996;49.546;7.400;2023-07-22T08:11:11;98575.25;;;21.84;59.63
68948;BME280;55996;49.546;7.400;2023-07-22T08:13:39;98573.06;;;22.01;58.67
68948;BME280;55996;49.546;7.400;2023-07-22T08:16:09;98583.00;;;21.87;58.67
68948;BME280;55996;49.546;7.400;2023-07-22T08:18:36;98575.41;;;21.71;56.73
68948;BME280;55996;49.546;7.400;2023-07-22T08:21:02;98586.06;;;21.71;57.58
68948;BME280;55996;49.546;7.400;2023-07-22T08:23:28;98577.59;;;21.77;53.88
68948;BME280;55996;49.546;7.400;2023-07-22T08:25:54;98575.53;;;21.81;57.86
68948;BME280;55996;49.546;7.400;2023-07-22T08:28:19;98578.91;;;22.16;58.55
68948;BME280;55996;49.546;7.400;2023-07-22T08:30:45;98583.75;;;22.22;58.97
68948;BME280;55996;49.546;7.400;2023-07-22T08:33:11;98579.31;;;22.32;53.44
68948;BME280;55996;49.546;7.400;2023-07-22T08:35:37;98576.97;;;22.50;56.62
68948;BME280;55996;49.546;7.400;2023-07-22T08:38:04;98574.22;;;22.83;55.62
68948;BME280;55996;49.546;7.400;2023-07-22T08:40:34;98576.78;;;22.63;53.45
68948;BME280;55996;49.546;7.400;2023-07-22T08:43:02;98573.59;;;22.48;53.16
68948;BME280;55996;49.546;7.400;2023-07-22T08:45:30;98580.66;;;22.80;54.32
68948;BME280;55996;49.546;7.400;2023-07-22T08:47:58;98573.41;;;22.92;50.98
68948;BME280;55996;49.546;7.400;2023-07-22T08:50:29;98577.97;;;23.01;52.43
68948;BME280;55996;49.546;7.400;2023-07-22T08:52:55;98574.72;;;22.98;49.78
68948;BME280;55996;49.546;7.400;2023-07-22T08:55:25;98564.34;;;22.95;52.41
68948;BME280;55996;49.546;7.400;2023-07-22T08:57:51;98577.19;;;22.89;51.49
68948;BME280;55996;49.546;7.400;2023-07-22T09:00:17;98559.03;;;23.04;52.03
68948;BME280;55996;49.546;7.400;2023-07-22T09:02:43;98563.06;;;23.20;50.99
68948;BME280;55996;49.546;7.400;2023-07-22T09:05:09;98559.53;;;22.88;50.50
68948;BME280;55996;49.546;7.400;2023-07-22T09:07:37;98580.44;;;22.93;48.90
68948;BME280;55996;49.546;7.400;2023-07-22T09:10:04;98581.13;;;22.85;51.36
68948;BME280;55996;49.546;7.400;2023-07-22T09:12:31;98584.56;;;22.97;52.46
68948;BME280;55996;49.546;7.400;2023-07-22T09:14:57;98583.22;;;22.61;51.71
68948;BME280;55996;49.546;7.400;2023-07-22T09:17:22;98576.31;;;22.79;50.41
68948;BME280;55996;49.546;7.400;2023-07-22T09:19:52;98566.84;;;22.44;52.82
68948;BME280;55996;49.546;7.400;2023-07-22T09:22:18;98582.31;;;22.50;52.70
68948;BME280;55996;49.546;7.400;2023-07-22T09:24:49;98575.72;;;22.76;52.40
68948;BME280;55996;49.546;7.400;2023-07-22T09:27:15;98573.72;;;22.68;52.55
68948;BME280;55996;49.546;7.400;2023-07-22T09:29:40;98567.41;;;22.69;51.34
68948;BME280;55996;49.546;7.400;2023-07-22T09:32:06;98576.38;;;22.68;54.26
68948;BME280;55996;49.546;7.400;2023-07-22T09:34:32;98574.13;;;22.31;54.96
68948;BME280;55996;49.546;7.400;2023-07-22T09:36:59;98579.44;;;22.63;54.57
68948;BME280;55996;49.546;7.400;2023-07-22T09:39:29;98575.50;;;22.58;53.92
68948;BME280;55996;49.546;7.400;2023-07-22T09:41:55;98574.47;;;22.80;52.35
68948;BME280;55996;49.546;7.400;2023-07-22T09:44:22;98551.16;;;23.03;48.91
68948;BME280;55996;49.546;7.400;2023-07-22T09:46:49;98556.50;;;23.03;50.52
68948;BME280;55996;49.546;7.400;2023-07-22T09:49:16;98567.56;;;22.98;51.93
68948;BME280;55996;49.546;7.400;2023-07-22T09:51:42;98559.28;;;22.70;52.34
68948;BME280;55996;49.546;7.400;2023-07-22T09:54:08;98567.59;;;22.56;52.20
68948;BME280;55996;49.546;7.400;2023-07-22T09:56:48;98568.72;;;22.53;53.80
68948;BME280;55996;49.546;7.400;2023-07-22T09:59:13;98567.66;;;22.87;54.96
68948;BME280;55996;49.546;7.400;2023-07-22T10:01:40;98565.31;;;22.94;53.03
68948;BME280;55996;49.546;7.400;2023-07-22T10:04:06;98567.16;;;23.03;54.70
68948;BME280;55996;49.546;7.400;2023-07-22T10:06:33;98567.66;;;22.66;52.79
68948;BME280;55996;49.546;7.400;2023-07-22T10:09:04;98563.81;;;23.01;53.21
68948;BME280;55996;49.546;7.400;2023-07-22T10:11:34;98562.81;;;23.33;48.92
68948;BME280;55996;49.546;7.400;2023-07-22T10:14:03;98565.59;;;23.21;49.76
68948;BME280;55996;49.546;7.400;2023-07-22T10:16:29;98565.38;;;23.13;51.26
68948;BME280;55996;49.546;7.400;2023-07-22T10:18:56;98566.72;;;23.60;49.93
68948;BME280;55996;49.546;7.400;2023-07-22T10:21:24;98559.91;;;24.06;47.49
68948;BME280;55996;49.546;7.400;2023-07-22T10:23:50;98557.38;;;24.24;47.89
68948;BME280;55996;49.546;7.400;2023-07-22T10:26:18;98566.78;;;24.28;46.57
68948;BME280;55996;49.546;7.400;2023-07-22T10:28:47;98559.31;;;24.61;46.22
68948;BME280;55996;49.546;7.400;2023-07-22T10:31:13;98542.78;;;24.95;44.87
68948;BME280;55996;49.546;7.400;2023-07-22T10:33:39;98550.56;;;25.54;41.71
68948;BME280;55996;49.546;7.400;2023-07-22T10:36:12;98534.13;;;25.67;42.42
68948;BME280;55996;49.546;7.400;2023-07-22T10:38:38;98538.06;;;25.73;44.27
68948;BME280;55996;49.546;7.400;2023-07-22T10:41:15;98541.34;;;26.21;41.92
68948;BME280;55996;49.546;7.400;2023-07-22T10:43:56;98524.66;;;25.91;41.20
68948;BME280;55996;49.546;7.400;2023-07-22T10:46:32;98525.97;;;26.05;43.11
68948;BME280;55996;49.546;7.400;2023-07-22T10:49:15;98533.31;;;26.39;40.96
68948;BME280;55996;49.546;7.400;2023-07-22T10:51:47;98527.28;;;26.19;41.23
68948;BME280;55996;49.546;7.400;2023-07-22T10:54:13;98530.34;;;25.88;41.43
68948;BME280;55996;49.546;7.400;2023-07-22T10:56:48;98532.69;;;25.91;41.11
68948;BME280;55996;49.546;7.400;2023-07-22T10:59:13;98531.91;;;25.62;40.12
68948;BME280;55996;49.546;7.400;2023-07-22T11:01:40;98534.03;;;25.03;42.09
68948;BME280;55996;49.546;7.400;2023-07-22T11:12:27;98511.63;;;25.04;42.72
68948;BME280;55996;49.546;7.400;2023-07-22T11:15:02;98515.31;;;25.03;43.19
68948;BME280;55996;49.546;7.400;2023-07-22T11:17:30;98516.25;;;24.74;44.18
68948;BME280;55996;49.546;7.400;2023-07-22T11:19:57;98512.69;;;24.26;43.57
68948;BME280;55996;49.546;7.400;2023-07-22T11:22:23;98503.94;;;23.85;44.63
68948;BME280;55996;49.546;7.400;2023-07-22T11:24:48;98502.66;;;24.38;45.92
68948;BME280;55996;49.546;7.400;2023-07-22T11:27:13;98498.75;;;24.90;45.12
68948;BME280;55996;49.546;7.400;2023-07-22T11:29:40;98502.19;;;24.72;42.46
68948;BME280;55996;49.546;7.400;2023-07-22T11:32:06;98494.47;;;24.49;42.55
68948;BME280;55996;49.546;7.400;2023-07-22T11:34:33;98493.84;;;24.18;43.69
68948;BME280;55996;49.546;7.400;2023-07-22T11:36:58;98491.84;;;23.91;43.04
68948;BME280;55996;49.546;7.400;2023-07-22T11:39:26;98485.38;;;23.83;46.28
68948;BME280;55996;49.546;7.400;2023-07-22T11:41:52;98486.50;;;23.71;45.19
68948;BME280;55996;49.546;7.400;2023-07-22T11:44:22;98492.56;;;23.83;45.05
68948;BME280;55996;49.546;7.400;2023-07-22T11:46:59;98488.47;;;23.89;44.71
68948;BME280;55996;49.546;7.400;2023-07-22T11:52:03;98485.53;;;24.88;43.31
68948;BME280;55996;49.546;7.400;2023-07-22T11:54:30;98485.16;;;25.29;42.94
68948;BME280;55996;49.546;7.400;2023-07-22T11:56:56;98479.25;;;25.07;39.91
68948;BME280;55996;49.546;7.400;2023-07-22T11:59:39;98473.28;;;25.13;42.70
68948;BME280;55996;49.546;7.400;2023-07-22T12:02:05;98476.34;;;25.01;42.21
68948;BME280;55996;49.546;7.400;2023-07-22T12:04:32;98471.41;;;24.96;42.25
68948;BME280;55996;49.546;7.400;2023-07-22T12:06:58;98476.88;;;24.67;43.55
68948;BME280;55996;49.546;7.400;2023-07-22T12:09:24;98471.91;;;25.09;43.47
68948;BME280;55996;49.546;7.400;2023-07-22T12:11:59;98473.69;;;25.65;39.99
68948;BME280;55996;49.546;7.400;2023-07-22T12:14:35;98476.44;;;25.91;40.17
68948;BME280;55996;49.546;7.400;2023-07-22T12:17:01;98467.72;;;26.25;39.10
68948;BME280;55996;49.546;7.400;2023-07-22T12:19:30;98464.19;;;26.51;39.78
68948;BME280;55996;49.546;7.400;2023-07-22T12:21:55;98455.69;;;26.90;39.02
68948;BME280;55996;49.546;7.400;2023-07-22T12:24:21;98454.31;;;26.51;37.31
68948;BME280;55996;49.546;7.400;2023-07-22T12:26:46;98458.81;;;26.24;38.10
68948;BME280;55996;49.546;7.400;2023-07-22T12:29:12;98455.03;;;26.62;39.44
68948;BME280;55996;49.546;7.400;2023-07-22T12:31:37;98457.53;;;26.29;38.90
68948;BME280;55996;49.546;7.400;2023-07-22T12:34:03;98452.34;;;26.09;36.60
68948;BME280;55996;49.546;7.400;2023-07-22T12:36:29;98457.72;;;25.73;37.94
68948;BME280;55996;49.546;7.400;2023-07-22T12:38:54;98467.94;;;25.96;39.34
68948;BME280;55996;49.546;7.400;2023-07-22T12:41:20;98443.41;;;25.64;39.08
68948;BME280;55996;49.546;7.400;2023-07-22T12:43:45;98449.56;;;26.01;36.84
68948;BME280;55996;49.546;7.400;2023-07-22T12:46:10;98455.88;;;26.09;39.44
68948;BME280;55996;49.546;7.400;2023-07-22T12:48:36;98440.84;;;26.43;38.00
68948;BME280;55996;49.546;7.400;2023-07-22T12:51:01;98443.75;;;26.76;37.95
68948;BME280;55996;49.546;7.400;2023-07-22T12:53:28;98432.72;;;26.87;36.46
68948;BME280;55996;49.546;7.400;2023-07-22T12:55:53;98438.78;;;26.89;37.78
68948;BME280;55996;49.546;7.400;2023-07-22T12:58:18;98437.19;;;27.13;36.53
68948;BME280;55996;49.546;7.400;2023-07-22T13:00:44;98437.06;;;27.39;37.29
68948;BME280;55996;49.546;7.400;2023-07-22T13:03:09;98435.88;;;26.83;35.93
68948;BME280;55996;49.546;7.400;2023-07-22T13:05:36;98437.66;;;27.00;37.68